createdAt,value
2023-05-16T00:01:02.475Z,100175.09
2023-05-16T00:03:31.649Z,100177.94
2023-05-16T00:05:59.420Z,100178.72
2023-05-16T00:08:26.765Z,100175.28
2023-05-16T00:10:53.370Z,100164.75
2023-05-16T00:13:25.034Z,100161.22
2023-05-16T00:15:57.774Z,100164.81
2023-05-16T00:18:26.258Z,100169.44
2023-05-16T00:20:55.131Z,100160.72
2023-05-16T00:23:22.085Z,100166.13
2023-05-16T00:25:49.095Z,100163.41
2023-05-16T00:28:15.792Z,100162.63
2023-05-16T00:30:42.578Z,100163.69
2023-05-16T00:33:09.253Z,100161.19
2023-05-16T00:35:37.798Z,100165.78
2023-05-16T00:38:04.492Z,100168.31
2023-05-16T00:40:31.383Z,100163.19
2023-05-16T00:42:58.428Z,100168.41
2023-05-16T00:45:25.099Z,100178.13
2023-05-16T00:47:51.985Z,100170.28
2023-05-16T00:50:19.252Z,100173.88
2023-05-16T00:52:45.976Z,100165.09
2023-05-16T00:55:13.338Z,100165.09
2023-05-16T00:57:40.498Z,100170.28
2023-05-16T01:00:10.858Z,100170.41
2023-05-16T01:02:43.823Z,100175.63
2023-05-16T01:05:10.525Z,100174.94
2023-05-16T01:07:37.231Z,100180.09
2023-05-16T01:10:05.212Z,100192.50
2023-05-16T01:12:38.456Z,100184.63
2023-05-16T01:15:12.898Z,100182.00
2023-05-16T01:18:06.959Z,100188.09
2023-05-16T01:20:39.050Z,100191.69
2023-05-16T01:23:18.350Z,100187.44
2023-05-16T01:25:45.435Z,100186.59
2023-05-16T01:28:14.258Z,100182.97
2023-05-16T01:30:41.677Z,100185.72
2023-05-16T01:33:09.121Z,100188.13
2023-05-16T01:35:58.832Z,100181.28
2023-05-16T01:38:27.395Z,100192.72
2023-05-16T01:41:10.515Z,100193.00
2023-05-16T01:43:45.415Z,100202.72
2023-05-16T01:46:16.661Z,100205.28
2023-05-16T01:48:53.339Z,100198.25
2023-05-16T01:51:25.176Z,100202.72
2023-05-16T01:53:52.535Z,100204.38
2023-05-16T01:56:20.002Z,100203.59
2023-05-16T01:58:47.927Z,100203.63
2023-05-16T02:01:14.632Z,100210.63
2023-05-16T02:03:41.507Z,100221.81
2023-05-16T02:06:08.264Z,100214.13
2023-05-16T02:08:35.090Z,100208.63
2023-05-16T02:11:01.713Z,100223.69
2023-05-16T02:13:28.341Z,100220.16
2023-05-16T02:15:54.968Z,100217.66
2023-05-16T02:18:23.584Z,100224.31
2023-05-16T02:20:51.034Z,100230.41
2023-05-16T02:23:17.626Z,100225.88
2023-05-16T02:25:44.518Z,100226.91
2023-05-16T02:28:11.258Z,100231.25
2023-05-16T02:30:37.900Z,100233.13
2023-05-16T02:33:04.713Z,100231.38
2023-05-16T02:35:31.519Z,100235.19
2023-05-16T02:37:58.148Z,100244.69
2023-05-16T02:40:24.757Z,100246.59
2023-05-16T02:42:51.405Z,100245.72
2023-05-16T02:45:17.991Z,100253.41
2023-05-16T02:47:44.665Z,100248.22
2023-05-16T02:50:11.464Z,100254.56
2023-05-16T02:52:38.104Z,100251.06
2023-05-16T02:55:21.171Z,100265.84
2023-05-16T02:57:48.843Z,100260.34
2023-05-16T03:00:18.340Z,100262.03
2023-05-16T03:02:45.641Z,100262.91
2023-05-16T03:05:12.511Z,100270.78
2023-05-16T03:07:39.253Z,100271.47
2023-05-16T03:10:06.993Z,100269.59
2023-05-16T03:12:33.673Z,100273.84
2023-05-16T03:15:00.298Z,100273.88
2023-05-16T03:17:26.962Z,100288.56
2023-05-16T03:19:54.272Z,100285.03
2023-05-16T03:22:20.888Z,100280.56
2023-05-16T03:24:47.601Z,100290.75
2023-05-16T03:27:14.285Z,100287.31
2023-05-16T03:29:41.032Z,100287.22
2023-05-16T03:32:07.804Z,100286.22
2023-05-16T03:34:34.498Z,100292.94
2023-05-16T03:37:01.276Z,100297.38
2023-05-16T03:39:27.919Z,100297.31
2023-05-16T03:41:57.293Z,100299.69
2023-05-16T03:44:24.247Z,100304.13
2023-05-16T03:46:51.511Z,100298.84
2023-05-16T03:49:18.476Z,100308.38
2023-05-16T03:51:45.328Z,100304.66
2023-05-16T03:54:11.939Z,100309.66
2023-05-16T03:56:38.792Z,100312.97
2023-05-16T03:59:05.539Z,100311.22
2023-05-16T04:01:32.282Z,100316.16
2023-05-16T04:03:58.979Z,100317.91
2023-05-16T04:06:25.852Z,100323.88
2023-05-16T04:08:52.482Z,100327.22
2023-05-16T04:11:19.118Z,100327.81
2023-05-16T04:13:45.895Z,100337.25
2023-05-16T04:16:13.219Z,100330.72
2023-05-16T04:18:39.951Z,100327.16
2023-05-16T04:21:07.634Z,100337.53
2023-05-16T04:23:34.294Z,100343.25
2023-05-16T04:26:01.936Z,100337.31
2023-05-16T04:28:28.547Z,100344.25
2023-05-16T04:30:55.162Z,100350.13
2023-05-16T04:33:21.805Z,100351.56
2023-05-16T04:35:48.685Z,100356.66
2023-05-16T04:38:15.668Z,100347.16
2023-05-16T04:40:42.343Z,100353.94
2023-05-16T04:43:09.054Z,100356.72
2023-05-16T04:45:37.579Z,100361.00
2023-05-16T04:48:05.083Z,100361.00
2023-05-16T04:50:31.865Z,100368.16
2023-05-16T04:52:58.636Z,100371.66
2023-05-16T04:55:27.117Z,100379.69
2023-05-16T04:57:54.514Z,100387.50
2023-05-16T05:00:21.721Z,100387.41
2023-05-16T05:02:48.486Z,100399.63
2023-05-16T05:05:16.349Z,100396.97
2023-05-16T05:07:43.690Z,100402.06
2023-05-16T05:10:10.936Z,100402.88
2023-05-16T05:12:37.786Z,100407.50
2023-05-16T05:15:05.493Z,100422.34
2023-05-16T05:17:34.539Z,100430.31
2023-05-16T05:20:03.401Z,100428.50
2023-05-16T05:22:30.842Z,100432.19
2023-05-16T05:24:57.439Z,100441.81
2023-05-16T05:27:25.404Z,100439.25
2023-05-16T05:29:52.238Z,100434.28
2023-05-16T05:32:18.934Z,100438.44
2023-05-16T05:34:45.622Z,100442.66
2023-05-16T05:37:12.271Z,100441.91
2023-05-16T05:39:38.866Z,100445.22
2023-05-16T05:42:05.783Z,100436.41
2023-05-16T05:44:33.466Z,100455.69
2023-05-16T05:47:00.061Z,100468.22
2023-05-16T05:49:27.100Z,100470.09
2023-05-16T05:51:53.990Z,100469.31
2023-05-16T05:54:20.946Z,100465.91
2023-05-16T05:56:47.564Z,100479.22
2023-05-16T05:59:14.187Z,100488.31
2023-05-16T06:01:41.103Z,100492.72
2023-05-16T06:04:07.796Z,100509.25
2023-05-16T06:06:34.480Z,100504.09
2023-05-16T06:09:01.279Z,100507.88
2023-05-16T06:11:27.903Z,100505.34
2023-05-16T06:13:54.573Z,100502.75
2023-05-16T06:16:25.383Z,100510.56
2023-05-16T06:18:52.105Z,100517.66
2023-05-16T06:21:18.846Z,100525.25
2023-05-16T06:23:45.580Z,100526.09
2023-05-16T06:26:12.191Z,100534.06
2023-05-16T06:28:39.087Z,100538.50
2023-05-16T06:31:05.931Z,100536.72
2023-05-16T06:33:32.657Z,100538.69
2023-05-16T06:36:00.286Z,100540.38
2023-05-16T06:38:27.392Z,100540.31
2023-05-16T06:40:54.027Z,100545.72
2023-05-16T06:43:20.691Z,100544.72
2023-05-16T06:45:47.389Z,100548.38
2023-05-16T06:48:17.516Z,100550.13
2023-05-16T06:50:48.428Z,100560.69
2023-05-16T06:53:15.124Z,100560.47
2023-05-16T06:55:41.826Z,100566.78
2023-05-16T06:58:09.161Z,100562.38
2023-05-16T07:00:36.063Z,100573.81
2023-05-16T07:03:03.906Z,100571.16
2023-05-16T07:05:31.533Z,100581.75
2023-05-16T07:07:58.278Z,100584.34
2023-05-16T07:10:24.983Z,100577.91
2023-05-16T07:12:51.665Z,100578.06
2023-05-16T07:15:18.349Z,100589.53
2023-05-16T07:17:45.251Z,100585.84
2023-05-16T07:20:14.500Z,100583.09
2023-05-16T07:22:41.211Z,100584.94
2023-05-16T07:25:12.666Z,100590.25
2023-05-16T07:27:41.544Z,100601.41
2023-05-16T07:30:09.902Z,100590.56
2023-05-16T07:32:38.136Z,100594.25
2023-05-16T07:35:05.151Z,100589.09
2023-05-16T07:37:31.857Z,100597.81
2023-05-16T07:39:59.857Z,100592.31
2023-05-16T07:42:26.552Z,100601.06
2023-05-16T07:44:53.314Z,100599.94
2023-05-16T07:47:19.991Z,100614.09
2023-05-16T07:49:46.638Z,100609.47
2023-05-16T07:52:13.301Z,100612.28
2023-05-16T07:54:41.057Z,100617.44
2023-05-16T07:57:07.769Z,100614.72
2023-05-16T07:59:34.764Z,100633.31
2023-05-16T08:02:01.435Z,100639.00
2023-05-16T08:04:28.657Z,100644.91
2023-05-16T08:06:55.343Z,100643.00
2023-05-16T08:09:34.984Z,100652.16
2023-05-16T08:12:11.192Z,100659.28
2023-05-16T08:15:00.642Z,100652.22
2023-05-16T08:20:24.323Z,100666.50
2023-05-16T08:22:53.317Z,100679.66
2023-05-16T08:26:05.129Z,100670.78
2023-05-16T08:46:53.131Z,100662.72
2023-05-16T08:57:10.640Z,100672.47
2023-05-16T09:00:18.509Z,100674.00
2023-05-16T09:02:59.623Z,100672.06
2023-05-16T09:13:32.939Z,100684.44
2023-05-16T09:16:30.260Z,100691.47
2023-05-16T09:19:06.645Z,100692.97
2023-05-16T09:21:45.080Z,100694.69
2023-05-16T09:24:11.772Z,100687.41
2023-05-16T09:26:39.641Z,100692.72
2023-05-16T09:29:11.817Z,100697.00
2023-05-16T09:31:38.768Z,100687.63
2023-05-16T09:34:11.238Z,100694.91
2023-05-16T09:36:37.942Z,100690.44
2023-05-16T09:39:06.715Z,100699.41
2023-05-16T09:41:35.075Z,100695.69
2023-05-16T09:44:06.464Z,100688.69
2023-05-16T09:46:35.004Z,100689.91
2023-05-16T09:49:01.743Z,100697.41
2023-05-16T09:51:28.731Z,100687.47
2023-05-16T09:53:55.511Z,100686.25
2023-05-16T09:56:22.407Z,100678.88
2023-05-16T09:58:52.112Z,100686.50
2023-05-16T10:01:21.527Z,100698.06
2023-05-16T10:03:48.446Z,100706.97
2023-05-16T10:06:16.670Z,100718.19
2023-05-16T10:08:43.706Z,100709.56
2023-05-16T10:11:11.254Z,100718.56
2023-05-16T10:13:38.242Z,100719.19
2023-05-16T10:16:11.336Z,100719.97
2023-05-16T10:18:39.051Z,100727.00
2023-05-16T10:21:10.362Z,100725.84
2023-05-16T10:23:39.331Z,100725.66
2023-05-16T10:26:06.470Z,100731.91
2023-05-16T10:28:33.364Z,100725.13
2023-05-16T10:31:01.783Z,100733.41
2023-05-16T10:33:28.677Z,100731.97
2023-05-16T10:35:55.703Z,100735.25
2023-05-16T10:38:24.418Z,100736.31
2023-05-16T10:40:51.527Z,100741.47
2023-05-16T10:43:26.630Z,100745.38
2023-05-16T10:46:09.795Z,100737.38
2023-05-16T10:48:41.177Z,100745.91
2023-05-16T10:51:38.163Z,100747.63
2023-05-16T10:54:10.307Z,100750.22
2023-05-16T10:56:37.119Z,100749.84
2023-05-16T10:59:04.994Z,100745.09
2023-05-16T11:01:35.197Z,100748.31
2023-05-16T11:04:07.527Z,100759.81
2023-05-16T11:06:36.198Z,100757.84
2023-05-16T11:09:12.031Z,100754.38
2023-05-16T11:11:49.412Z,100751.81
2023-05-16T11:14:37.492Z,100762.56
2023-05-16T11:17:10.391Z,100762.44
2023-05-16T11:19:59.315Z,100759.81
2023-05-16T11:22:28.743Z,100758.09
2023-05-16T11:25:15.721Z,100752.63
2023-05-16T11:27:46.869Z,100752.75
2023-05-16T11:30:19.300Z,100750.09
2023-05-16T11:32:47.429Z,100751.16
2023-05-16T11:35:15.860Z,100750.84
2023-05-16T11:37:43.159Z,100747.53
2023-05-16T11:40:12.166Z,100753.38
2023-05-16T11:42:44.246Z,100747.13
2023-05-16T11:45:25.611Z,100753.59
2023-05-16T11:47:52.586Z,100739.69
2023-05-16T11:50:22.226Z,100740.19
2023-05-16T11:52:58.229Z,100743.44
2023-05-16T11:57:59.992Z,100754.88
2023-05-16T12:00:27.214Z,100747.75
2023-05-16T12:02:55.425Z,100754.84
2023-05-16T12:05:28.380Z,100765.75
2023-05-16T12:07:55.191Z,100751.88
2023-05-16T12:10:21.937Z,100750.94
2023-05-16T12:12:52.583Z,100752.31
2023-05-16T12:15:19.499Z,100760.56
2023-05-16T12:17:47.660Z,100774.03
2023-05-16T12:20:16.694Z,100769.59
2023-05-16T12:22:45.875Z,100768.66
2023-05-16T12:25:21.549Z,100770.13
2023-05-16T12:27:48.244Z,100767.81
2023-05-16T12:30:17.698Z,100758.69
2023-05-16T12:32:44.882Z,100759.25
2023-05-16T12:35:15.101Z,100746.59
2023-05-16T12:37:43.909Z,100734.81
2023-05-16T12:40:12.607Z,100748.69
2023-05-16T12:42:39.262Z,100738.13
2023-05-16T12:45:06.189Z,100739.53
2023-05-16T12:47:37.487Z,100745.66
2023-05-16T12:50:10.372Z,100746.66
2023-05-16T12:52:36.998Z,100738.16
2023-05-16T12:55:03.986Z,100750.19
2023-05-16T12:57:31.029Z,100745.44
2023-05-16T12:59:58.507Z,100742.56
2023-05-16T13:02:25.474Z,100746.75
2023-05-16T13:04:52.250Z,100756.41
2023-05-16T13:07:18.921Z,100761.22
2023-05-16T13:09:45.604Z,100769.28
2023-05-16T13:12:14.119Z,100771.94
2023-05-16T13:14:43.063Z,100781.91
2023-05-16T13:17:11.941Z,100781.50
2023-05-16T13:19:38.652Z,100781.84
2023-05-16T13:22:05.364Z,100782.97
2023-05-16T13:24:31.981Z,100783.28
2023-05-16T13:26:59.611Z,100783.06
2023-05-16T13:29:26.477Z,100759.25
2023-05-16T13:31:53.239Z,100759.59
2023-05-16T13:34:19.939Z,100758.28
2023-05-16T13:36:53.885Z,100764.81
2023-05-16T13:39:22.244Z,100768.69
2023-05-16T13:41:49.242Z,100752.09
2023-05-16T13:44:16.630Z,100760.53
2023-05-16T13:46:43.473Z,100774.41
2023-05-16T13:49:10.171Z,100771.41
2023-05-16T13:51:36.894Z,100776.75
2023-05-16T13:54:03.834Z,100766.88
2023-05-16T13:56:30.586Z,100759.97
2023-05-16T13:59:03.654Z,100753.41
2023-05-16T14:01:32.998Z,100746.91
2023-05-16T14:03:59.754Z,100747.09
2023-05-16T14:06:26.560Z,100736.69
2023-05-16T14:08:54.541Z,100759.34
2023-05-16T14:11:28.505Z,100756.84
2023-05-16T14:13:56.638Z,100749.16
2023-05-16T14:16:23.380Z,100755.78
2023-05-16T14:18:50.152Z,100755.06
2023-05-16T14:21:16.835Z,100763.38
2023-05-16T14:23:43.569Z,100754.16
2023-05-16T14:26:10.236Z,100764.91
2023-05-16T14:28:36.872Z,100759.09
2023-05-16T14:31:03.595Z,100766.34
2023-05-16T14:33:31.087Z,100768.75
2023-05-16T14:35:57.797Z,100777.16
2023-05-16T14:38:24.467Z,100766.97
2023-05-16T14:40:51.114Z,100763.00
2023-05-16T14:43:17.904Z,100766.78
2023-05-16T14:45:44.603Z,100767.09
2023-05-16T14:48:11.313Z,100768.91
2023-05-16T14:50:37.987Z,100768.53
2023-05-16T14:53:04.704Z,100771.00
2023-05-16T14:55:31.392Z,100773.88
2023-05-16T14:57:59.975Z,100780.53
2023-05-16T15:00:30.421Z,100777.34
2023-05-16T15:02:57.547Z,100784.59
2023-05-16T15:05:25.704Z,100787.75
2023-05-16T15:07:52.394Z,100784.72
2023-05-16T15:10:19.649Z,100774.16
2023-05-16T15:12:46.392Z,100771.63
2023-05-16T15:15:14.940Z,100764.78
2023-05-16T15:17:43.176Z,100758.06
2023-05-16T15:20:11.030Z,100762.34
2023-05-16T15:22:39.158Z,100763.22
2023-05-16T15:25:06.419Z,100760.81
2023-05-16T15:27:33.092Z,100758.47
2023-05-16T15:30:00.706Z,100752.97
2023-05-16T15:32:27.436Z,100764.66
2023-05-16T15:34:54.310Z,100762.00
2023-05-16T15:37:21.284Z,100753.66
2023-05-16T15:39:48.223Z,100772.41
2023-05-16T15:42:15.004Z,100763.59
2023-05-16T15:44:41.944Z,100769.22
2023-05-16T15:47:09.277Z,100749.09
2023-05-16T15:49:36.412Z,100759.72
2023-05-16T15:52:03.878Z,100749.91
2023-05-16T15:54:30.720Z,100758.09
2023-05-16T15:56:57.708Z,100753.13
2023-05-16T15:59:24.538Z,100753.31
2023-05-16T16:01:51.220Z,100747.44
2023-05-16T16:04:20.413Z,100766.13
2023-05-16T16:06:48.571Z,100769.31
2023-05-16T16:09:15.821Z,100767.50
2023-05-16T16:11:42.843Z,100778.50
2023-05-16T16:14:11.046Z,100774.41
2023-05-16T16:16:39.673Z,100775.75
2023-05-16T16:19:07.314Z,100776.91
2023-05-16T16:21:34.454Z,100776.56
2023-05-16T16:24:01.354Z,100782.94
2023-05-16T16:26:28.046Z,100790.00
2023-05-16T16:28:54.715Z,100781.94
2023-05-16T16:31:21.396Z,100781.09
2023-05-16T16:33:49.275Z,100797.75
2023-05-16T16:36:16.924Z,100795.59
2023-05-16T16:38:43.864Z,100789.91
2023-05-16T16:41:10.606Z,100785.94
2023-05-16T16:43:40.067Z,100783.69
2023-05-16T16:46:07.616Z,100789.47
2023-05-16T16:48:34.643Z,100792.38
2023-05-16T16:51:02.223Z,100795.31
2023-05-16T16:53:29.073Z,100805.56
2023-05-16T16:55:55.776Z,100797.81
2023-05-16T16:58:24.673Z,100802.84
2023-05-16T17:00:51.820Z,100791.34
2023-05-16T17:03:18.961Z,100805.09
2023-05-16T17:05:46.173Z,100798.53
2023-05-16T17:08:20.348Z,100796.34
2023-05-16T17:10:52.350Z,100795.97
2023-05-16T17:13:34.869Z,100795.44
2023-05-16T17:16:31.020Z,100786.47
2023-05-16T17:18:57.864Z,100790.13
2023-05-16T17:21:24.657Z,100782.63
2023-05-16T17:23:51.487Z,100792.66
2023-05-16T17:26:18.204Z,100779.75
2023-05-16T17:28:46.337Z,100789.59
2023-05-16T17:31:13.150Z,100793.22
2023-05-16T17:33:40.012Z,100796.69
2023-05-16T17:36:07.371Z,100796.75
2023-05-16T17:38:34.494Z,100810.41
2023-05-16T17:41:01.799Z,100822.63
2023-05-16T17:43:29.948Z,100818.19
2023-05-16T17:45:56.982Z,100818.00
2023-05-16T17:48:23.799Z,100823.25
2023-05-16T17:50:51.192Z,100829.88
2023-05-16T17:53:17.921Z,100839.00
2023-05-16T17:55:44.676Z,100833.88
2023-05-16T17:58:11.403Z,100844.44
2023-05-16T18:00:38.419Z,100846.56
2023-05-16T18:03:06.361Z,100847.81
2023-05-16T18:05:33.205Z,100856.63
2023-05-16T18:07:59.933Z,100866.03
2023-05-16T18:10:31.522Z,100871.97
2023-05-16T18:13:03.804Z,100862.88
2023-05-16T18:15:30.489Z,100870.84
2023-05-16T18:17:57.231Z,100874.31
2023-05-16T18:20:24.083Z,100877.31
2023-05-16T18:22:52.015Z,100885.47
2023-05-16T18:25:22.085Z,100884.78
2023-05-16T18:27:48.837Z,100890.09
2023-05-16T18:30:16.387Z,100894.69
2023-05-16T18:32:43.296Z,100895.88
2023-05-16T18:35:10.393Z,100897.13
2023-05-16T18:37:37.238Z,100898.13
2023-05-16T18:40:04.846Z,100906.03
2023-05-16T18:42:31.626Z,100914.19
2023-05-16T18:44:58.321Z,100917.00
2023-05-16T18:47:25.107Z,100921.53
2023-05-16T18:49:52.658Z,100925.22
2023-05-16T18:52:19.386Z,100932.38
2023-05-16T18:54:46.120Z,100936.28
2023-05-16T18:57:13.196Z,100936.97
2023-05-16T18:59:39.887Z,100941.75
2023-05-16T19:02:06.617Z,100932.84
2023-05-16T19:04:33.409Z,100932.31
2023-05-16T19:07:01.755Z,100924.63
2023-05-16T19:09:30.699Z,100926.56
2023-05-16T19:11:57.403Z,100939.00
2023-05-16T19:14:24.078Z,100948.91
2023-05-16T19:16:51.109Z,100953.50
2023-05-16T19:19:18.016Z,100951.03
2023-05-16T19:21:44.885Z,100958.22
2023-05-16T19:24:12.038Z,100960.31
2023-05-16T19:26:39.972Z,100964.56
2023-05-16T19:29:06.691Z,100969.91
2023-05-16T19:31:33.406Z,100977.78
2023-05-16T19:34:00.164Z,100974.56
2023-05-16T19:36:26.874Z,100978.13
2023-05-16T19:38:53.627Z,100986.31
2023-05-16T19:41:21.467Z,100986.25
2023-05-16T19:43:48.281Z,100994.19
2023-05-16T19:46:14.973Z,101001.16
2023-05-16T19:48:41.776Z,101005.59
2023-05-16T19:51:09.174Z,101008.44
2023-05-16T19:53:36.075Z,101004.88
2023-05-16T19:56:03.248Z,101004.25
2023-05-16T19:58:30.087Z,101002.63
2023-05-16T20:00:58.476Z,101004.34
2023-05-16T20:03:25.430Z,100994.78
2023-05-16T20:05:52.226Z,101001.81
2023-05-16T20:08:18.858Z,101010.75
2023-05-16T20:10:45.782Z,101024.91
2023-05-16T20:13:12.644Z,101022.25
2023-05-16T20:15:39.364Z,101028.41
2023-05-16T20:18:06.429Z,101017.13
2023-05-16T20:20:33.118Z,101024.09
2023-05-16T20:22:59.783Z,101019.88
2023-05-16T20:25:27.105Z,101032.25
2023-05-16T20:27:54.074Z,101022.41
2023-05-16T20:30:20.967Z,101031.44
2023-05-16T20:32:47.685Z,101029.03
2023-05-16T20:35:14.966Z,101030.09
2023-05-16T20:37:41.852Z,101029.38
2023-05-16T20:40:09.109Z,101032.97
2023-05-16T20:42:36.265Z,101045.28
2023-05-16T20:45:03.168Z,101037.19
2023-05-16T20:47:29.882Z,101041.06
2023-05-16T20:49:56.586Z,101046.44
2023-05-16T20:52:23.924Z,101049.94
2023-05-16T20:54:50.656Z,101050.00
2023-05-16T20:57:17.806Z,101042.97
2023-05-16T20:59:44.543Z,101043.03
2023-05-16T21:02:11.319Z,101046.63
2023-05-16T21:04:38.712Z,101048.50
2023-05-16T21:07:08.133Z,101046.78
2023-05-16T21:09:36.937Z,101039.72
2023-05-16T21:12:04.308Z,101045.16
2023-05-16T21:14:31.079Z,101043.38
2023-05-16T21:16:57.784Z,101046.06
2023-05-16T21:19:24.563Z,101046.09
2023-05-16T21:21:51.402Z,101041.72
2023-05-16T21:24:18.119Z,101044.41
2023-05-16T21:26:44.787Z,101043.53
2023-05-16T21:29:11.428Z,101050.53
2023-05-16T21:31:38.111Z,101050.50
2023-05-16T21:34:05.026Z,101047.03
2023-05-16T21:36:31.799Z,101045.25
2023-05-16T21:38:58.480Z,101051.38
2023-05-16T21:41:25.211Z,101053.97
2023-05-16T21:43:51.857Z,101056.66
2023-05-16T21:46:18.527Z,101061.91
2023-05-16T21:48:45.304Z,101061.91
2023-05-16T21:51:12.047Z,101059.31
2023-05-16T21:53:38.761Z,101051.44
2023-05-16T21:56:06.010Z,101054.06
2023-05-16T21:58:32.715Z,101055.84
2023-05-16T22:00:59.393Z,101060.22
2023-05-16T22:03:26.139Z,101064.63
2023-05-16T22:05:52.891Z,101064.59
2023-05-16T22:08:19.683Z,101062.03
2023-05-16T22:10:47.865Z,101061.13
2023-05-16T22:13:14.545Z,101072.53
2023-05-16T22:15:44.468Z,101072.53
2023-05-16T22:18:13.470Z,101066.41
2023-05-16T22:20:41.241Z,101075.19
2023-05-16T22:23:07.968Z,101074.28
2023-05-16T22:25:34.684Z,101070.78
2023-05-16T22:28:01.380Z,101070.78
2023-05-16T22:30:30.214Z,101070.78
2023-05-16T22:32:57.241Z,101057.63
2023-05-16T22:35:25.299Z,101062.88
2023-05-16T22:37:52.043Z,101065.53
2023-05-16T22:40:18.677Z,101062.88
2023-05-16T22:42:45.405Z,101058.53
2023-05-16T22:45:12.041Z,101058.50
2023-05-16T22:47:38.764Z,101059.38
2023-05-16T22:50:05.656Z,101057.63
2023-05-16T22:52:32.404Z,101056.75
2023-05-16T22:55:00.617Z,101062.88
2023-05-16T22:57:27.382Z,101062.88
2023-05-16T22:59:54.037Z,101055.88
2023-05-16T23:02:20.772Z,101057.63
2023-05-16T23:04:47.690Z,101063.75
2023-05-16T23:07:14.360Z,101062.03
2023-05-16T23:09:41.064Z,101068.16
2023-05-16T23:12:08.457Z,101069.00
2023-05-16T23:14:35.126Z,101068.13
2023-05-16T23:17:01.812Z,101070.75
2023-05-16T23:19:28.749Z,101074.25
2023-05-16T23:21:55.546Z,101076.00
2023-05-16T23:24:22.800Z,101072.50
2023-05-16T23:26:49.480Z,101078.63
2023-05-16T23:29:16.218Z,101083.84
2023-05-16T23:31:42.853Z,101088.22
2023-05-16T23:34:11.676Z,101086.47
2023-05-16T23:36:38.322Z,101091.75
2023-05-16T23:39:05.045Z,101094.34
2023-05-16T23:41:31.675Z,101098.75
2023-05-16T23:43:58.335Z,101096.06
2023-05-16T23:46:24.988Z,101098.69
2023-05-16T23:48:51.826Z,101093.44
2023-05-16T23:51:18.565Z,101092.50
2023-05-16T23:53:45.643Z,101097.75
2023-05-16T23:56:12.951Z,101099.47
2023-05-16T23:58:39.593Z,101091.56
